createdAt,value
2019-06-08T00:00:53.665Z,1.57
2019-06-08T00:03:22.711Z,1.50
2019-06-08T00:05:51.305Z,1.90
2019-06-08T00:08:20.889Z,1.43
2019-06-08T00:10:49.285Z,1.70
2019-06-08T00:13:17.505Z,1.77
2019-06-08T00:15:45.762Z,1.70
2019-06-08T00:18:15.258Z,1.73
2019-06-08T00:20:43.443Z,1.50
2019-06-08T00:23:11.760Z,1.47
2019-06-08T00:25:40.078Z,1.50
2019-06-08T00:28:08.296Z,1.40
2019-06-08T00:30:37.224Z,1.80
2019-06-08T00:33:05.578Z,1.73
2019-06-08T00:35:33.889Z,1.90
2019-06-08T00:38:02.117Z,1.60
2019-06-08T00:40:30.365Z,1.90
2019-06-08T00:42:58.588Z,1.90
2019-06-08T00:45:26.885Z,1.87
2019-06-08T00:47:55.140Z,1.97
2019-06-08T00:50:25.230Z,2.00
2019-06-08T00:52:53.525Z,2.00
2019-06-08T00:55:21.821Z,2.20
2019-06-08T00:57:50.089Z,2.20
2019-06-08T01:00:18.482Z,1.80
2019-06-08T01:02:46.800Z,2.17
2019-06-08T01:05:15.089Z,1.80
2019-06-08T01:07:43.341Z,1.70
2019-06-08T01:10:11.639Z,1.63
2019-06-08T01:12:39.884Z,1.70
2019-06-08T01:15:08.841Z,1.73
2019-06-08T01:17:37.832Z,1.63
2019-06-08T01:20:06.824Z,1.67
2019-06-08T01:22:35.072Z,1.60
2019-06-08T01:25:03.891Z,2.10
2019-06-08T01:27:32.212Z,2.27
2019-06-08T01:30:00.496Z,1.70
2019-06-08T01:32:28.745Z,1.60
2019-06-08T01:34:56.964Z,1.70
2019-06-08T01:37:25.216Z,1.70
2019-06-08T01:39:53.441Z,1.80
2019-06-08T01:42:21.770Z,1.67
2019-06-08T01:44:50.004Z,1.73
2019-06-08T01:47:18.279Z,2.20
2019-06-08T01:49:46.549Z,2.10
2019-06-08T01:52:14.800Z,2.20
2019-06-08T01:54:43.020Z,1.70
2019-06-08T01:57:11.336Z,2.20
2019-06-08T01:59:39.557Z,2.10
2019-06-08T02:02:07.900Z,2.20
2019-06-08T02:04:39.590Z,2.07
2019-06-08T02:07:10.010Z,2.17
2019-06-08T02:09:38.236Z,1.87
2019-06-08T02:12:06.574Z,1.90
2019-06-08T02:14:35.398Z,1.90
2019-06-08T02:17:03.869Z,2.40
2019-06-08T02:19:32.683Z,2.30
2019-06-08T02:22:01.004Z,2.13
2019-06-08T02:24:29.244Z,2.20
2019-06-08T02:26:57.477Z,2.07
2019-06-08T02:29:25.765Z,2.10
2019-06-08T02:31:54.014Z,1.77
2019-06-08T02:34:22.233Z,1.40
2019-06-08T02:36:50.487Z,1.50
2019-06-08T02:39:18.709Z,1.57
2019-06-08T02:41:47.032Z,1.70
2019-06-08T02:44:15.322Z,1.37
2019-06-08T02:46:43.567Z,1.50
2019-06-08T02:49:11.791Z,1.53
2019-06-08T02:51:41.137Z,1.50
2019-06-08T02:54:10.393Z,1.63
2019-06-08T02:56:41.114Z,1.50
2019-06-08T02:59:11.258Z,1.23
2019-06-08T03:01:40.666Z,1.33
2019-06-08T03:04:09.372Z,1.50
2019-06-08T03:06:39.459Z,1.60
2019-06-08T03:09:08.139Z,1.50
2019-06-08T03:11:36.986Z,1.30
2019-06-08T03:14:05.609Z,1.53
2019-06-08T03:16:35.570Z,1.57
2019-06-08T03:19:19.970Z,1.53
2019-06-08T03:21:33.915Z,1.50
2019-06-08T03:24:03.082Z,1.33
2019-06-08T03:26:32.150Z,1.57
2019-06-08T03:29:01.486Z,1.50
2019-06-08T03:31:29.705Z,1.43
2019-06-08T03:33:57.968Z,1.40
2019-06-08T03:36:26.245Z,1.50
2019-06-08T03:38:54.493Z,1.30
2019-06-08T03:41:22.717Z,1.47
2019-06-08T03:43:52.724Z,1.30
2019-06-08T03:46:22.145Z,1.40
2019-06-08T03:48:50.359Z,1.53
2019-06-08T03:51:18.678Z,1.30
2019-06-08T03:53:47.403Z,1.27
2019-06-08T03:56:15.952Z,1.50
2019-06-08T03:58:46.082Z,1.73
2019-06-08T04:01:14.074Z,1.70
2019-06-08T04:03:43.882Z,1.60
2019-06-08T04:06:12.164Z,1.77
2019-06-08T04:08:42.344Z,1.30
2019-06-08T04:11:10.344Z,1.30
2019-06-08T04:13:39.959Z,1.33
2019-06-08T04:16:08.193Z,1.27
2019-06-08T04:18:37.988Z,1.50
2019-06-08T04:21:06.464Z,1.23
2019-06-08T04:23:34.677Z,1.40
2019-06-08T04:26:02.932Z,1.60
2019-06-08T04:28:31.216Z,1.43
2019-06-08T04:30:59.467Z,1.50
2019-06-08T04:33:27.690Z,1.57
2019-06-08T04:35:55.985Z,1.33
2019-06-08T04:38:24.308Z,1.50
2019-06-08T04:40:52.528Z,1.60
2019-06-08T04:43:20.781Z,1.40
2019-06-08T04:45:49.918Z,1.67
2019-06-08T04:48:18.358Z,1.50
2019-06-08T04:50:48.049Z,1.43
2019-06-08T04:53:16.450Z,1.50
2019-06-08T04:55:45.092Z,1.43
2019-06-08T04:58:14.021Z,1.57
2019-06-08T05:00:45.053Z,1.57
2019-06-08T05:03:12.134Z,1.30
2019-06-08T05:05:41.104Z,1.60
2019-06-08T05:08:09.402Z,1.93
2019-06-08T05:10:39.089Z,1.43
2019-06-08T05:13:07.683Z,1.50
2019-06-08T05:15:35.981Z,1.60
2019-06-08T05:18:04.722Z,1.90
2019-06-08T05:20:38.824Z,1.50
2019-06-08T05:23:02.833Z,1.50
2019-06-08T05:25:31.125Z,1.40
2019-06-08T05:27:59.351Z,1.73
2019-06-08T05:30:28.228Z,1.33
2019-06-08T05:32:56.513Z,1.50
2019-06-08T05:35:24.848Z,1.67
2019-06-08T05:37:53.066Z,1.47
2019-06-08T05:40:21.384Z,1.87
2019-06-08T05:42:49.948Z,1.30
2019-06-08T05:45:18.526Z,1.27
2019-06-08T05:47:47.939Z,1.63
2019-06-08T05:50:16.454Z,1.50
2019-06-08T05:52:45.859Z,1.47
2019-06-08T05:55:14.472Z,1.67
2019-06-08T05:57:42.727Z,1.20
2019-06-08T06:00:11.552Z,1.80
2019-06-08T06:02:40.259Z,1.47
2019-06-08T06:05:08.740Z,1.60
2019-06-08T06:07:37.370Z,1.30
2019-06-08T06:10:06.137Z,1.27
2019-06-08T06:12:34.687Z,1.50
2019-06-08T06:15:04.139Z,1.37
2019-06-08T06:17:32.401Z,1.57
2019-06-08T06:20:00.691Z,1.43
2019-06-08T06:22:29.009Z,1.37
2019-06-08T06:24:57.295Z,1.70
2019-06-08T06:27:25.623Z,1.40
2019-06-08T06:29:54.490Z,1.50
2019-06-08T06:32:23.244Z,1.40
2019-06-08T06:34:52.276Z,1.43
2019-06-08T06:37:20.609Z,1.20
2019-06-08T06:39:50.040Z,1.60
2019-06-08T06:42:18.666Z,1.50
2019-06-08T06:44:48.887Z,1.73
2019-06-08T06:47:17.248Z,1.37
2019-06-08T06:49:46.461Z,1.67
2019-06-08T06:52:15.216Z,1.40
2019-06-08T06:54:44.721Z,1.37
2019-06-08T06:57:13.309Z,1.50
2019-06-08T06:59:41.612Z,1.67
2019-06-08T07:02:11.493Z,1.47
2019-06-08T07:04:40.529Z,1.83
2019-06-08T07:07:09.266Z,1.77
2019-06-08T07:09:37.680Z,1.70
2019-06-08T07:12:06.414Z,1.63
2019-06-08T07:14:34.769Z,1.40
2019-06-08T07:17:05.167Z,1.30
2019-06-08T07:19:33.513Z,1.67
2019-06-08T07:22:01.826Z,2.00
2019-06-08T07:24:30.079Z,1.53
2019-06-08T07:26:58.775Z,1.50
2019-06-08T07:29:27.326Z,1.73
2019-06-08T07:31:55.621Z,1.73
2019-06-08T07:34:24.018Z,1.97
2019-06-08T07:36:53.414Z,1.70
2019-06-08T07:39:22.284Z,1.40
2019-06-08T07:41:51.757Z,1.80
2019-06-08T07:44:20.086Z,1.63
2019-06-08T07:46:49.327Z,1.60
2019-06-08T07:49:17.960Z,1.40
2019-06-08T07:51:59.971Z,1.57
2019-06-08T07:54:18.263Z,1.50
2019-06-08T07:56:48.360Z,1.53
2019-06-08T07:59:18.437Z,1.60
2019-06-08T08:01:47.799Z,1.80
2019-06-08T08:04:16.954Z,1.80
2019-06-08T08:06:45.719Z,1.70
2019-06-08T08:09:13.909Z,1.40
2019-06-08T08:11:42.433Z,1.50
2019-06-08T08:14:10.822Z,1.47
2019-06-08T08:16:39.181Z,1.37
2019-06-08T08:19:07.405Z,1.40
2019-06-08T08:21:37.954Z,1.30
2019-06-08T08:24:07.273Z,1.70
2019-06-08T08:26:35.716Z,1.67
2019-06-08T08:29:04.001Z,1.73
2019-06-08T08:31:32.240Z,1.47
2019-06-08T08:34:05.475Z,1.80
2019-06-08T08:36:33.298Z,1.77
2019-06-08T08:39:02.320Z,1.63
2019-06-08T08:41:30.417Z,1.77
2019-06-08T08:44:02.830Z,1.67
2019-06-08T08:46:28.728Z,1.50
2019-06-08T08:49:05.838Z,1.80
2019-06-08T08:51:27.911Z,1.70
2019-06-08T08:54:02.061Z,1.60
2019-06-08T08:56:28.075Z,1.40
2019-06-08T08:58:59.215Z,1.70
2019-06-08T09:01:28.901Z,1.50
2019-06-08T09:04:00.942Z,1.47
2019-06-08T09:06:27.981Z,1.40
2019-06-08T09:08:59.700Z,1.43
2019-06-08T09:11:51.552Z,1.50
2019-06-08T09:14:20.989Z,1.70
2019-06-08T09:16:52.636Z,1.57
2019-06-08T09:19:22.403Z,1.40
2019-06-08T09:21:52.477Z,1.60
2019-06-08T09:24:22.826Z,1.60
2019-06-08T09:26:54.204Z,1.37
2019-06-08T09:29:25.771Z,1.50
2019-06-08T09:31:54.235Z,1.50
2019-06-08T09:34:22.539Z,1.57
2019-06-08T09:36:52.635Z,1.70
2019-06-08T09:39:21.633Z,1.40
2019-06-08T09:41:49.964Z,1.70
2019-06-08T09:44:18.684Z,1.40
2019-06-08T09:46:48.123Z,1.83
2019-06-08T09:49:18.855Z,1.43
2019-06-08T09:51:51.323Z,1.83
2019-06-08T09:54:19.632Z,1.80
2019-06-08T09:56:51.552Z,1.87
2019-06-08T09:59:24.979Z,1.73
2019-06-08T10:02:00.116Z,1.40
2019-06-08T10:04:31.584Z,1.60
2019-06-08T10:07:02.676Z,1.60
2019-06-08T10:09:33.451Z,1.50
2019-06-08T10:12:09.965Z,1.40
2019-06-08T10:14:38.111Z,1.60
2019-06-08T10:17:08.973Z,1.33
2019-06-08T10:19:36.990Z,1.47
2019-06-08T10:22:05.267Z,1.60
2019-06-08T10:24:33.837Z,1.50
2019-06-08T10:27:03.552Z,1.40
2019-06-08T10:29:32.041Z,1.30
2019-06-08T10:32:03.742Z,1.73
2019-06-08T10:34:38.642Z,1.70
2019-06-08T10:37:13.177Z,1.50
2019-06-08T10:39:40.342Z,1.43
2019-06-08T10:42:12.535Z,1.37
2019-06-08T10:44:44.863Z,1.77
2019-06-08T10:47:17.723Z,1.40
2019-06-08T10:49:49.486Z,1.63
2019-06-08T10:52:20.289Z,1.50
2019-06-08T10:54:48.114Z,1.63
2019-06-08T10:57:18.240Z,1.77
2019-06-08T10:59:48.587Z,1.90
2019-06-08T11:02:18.689Z,1.90
2019-06-08T11:04:48.386Z,1.67
2019-06-08T11:07:17.305Z,1.70
2019-06-08T11:09:48.140Z,1.60
2019-06-08T11:12:18.225Z,1.40
2019-06-08T11:14:48.035Z,1.70
2019-06-08T11:17:17.919Z,1.80
2019-06-08T11:19:48.581Z,1.50
2019-06-08T11:22:18.050Z,1.57
2019-06-08T11:24:48.611Z,1.43
2019-06-08T11:27:18.728Z,1.50
2019-06-08T11:29:47.746Z,1.77
2019-06-08T11:32:18.310Z,1.50
2019-06-08T11:34:48.674Z,2.00
2019-06-08T11:37:20.796Z,1.60
2019-06-08T11:39:46.293Z,1.60
2019-06-08T11:42:15.607Z,1.77
2019-06-08T11:44:43.905Z,1.30
2019-06-08T11:47:13.329Z,1.50
2019-06-08T11:49:42.007Z,1.57
2019-06-08T11:52:11.159Z,1.60
2019-06-08T11:54:41.149Z,1.40
2019-06-08T11:57:12.787Z,1.60
2019-06-08T11:59:40.100Z,1.60
2019-06-08T12:02:12.042Z,1.70
2019-06-08T12:04:38.514Z,1.47
2019-06-08T12:07:09.100Z,1.43
2019-06-08T12:09:36.758Z,1.53
2019-06-08T12:12:05.098Z,1.50
2019-06-08T12:14:33.734Z,1.60
2019-06-08T12:17:03.438Z,1.63
2019-06-08T12:19:31.772Z,1.43
2019-06-08T12:22:00.179Z,1.33
2019-06-08T12:24:41.006Z,1.30
2019-06-08T12:27:08.543Z,1.40
2019-06-08T12:29:28.551Z,1.60
2019-06-08T12:31:58.386Z,1.20
2019-06-08T12:34:28.080Z,1.40
2019-06-08T12:36:58.305Z,1.47
2019-06-08T12:39:28.178Z,1.30
2019-06-08T12:41:58.283Z,1.70
2019-06-08T12:44:29.074Z,1.40
2019-06-08T12:46:58.407Z,1.80
2019-06-08T12:49:26.177Z,1.30
2019-06-08T12:51:54.475Z,1.20
2019-06-08T12:54:22.694Z,1.40
2019-06-08T12:56:50.954Z,1.50
2019-06-08T12:59:22.526Z,1.40
2019-06-08T13:01:49.055Z,1.40
2019-06-08T13:04:21.280Z,1.50
2019-06-08T13:06:48.346Z,1.27
2019-06-08T13:09:18.872Z,1.40
2019-06-08T13:11:50.452Z,1.20
2019-06-08T13:14:19.019Z,1.20
2019-06-08T13:16:48.656Z,1.53
2019-06-08T13:19:17.384Z,1.50
2019-06-08T13:21:45.916Z,1.30
2019-06-08T13:24:15.100Z,1.60
2019-06-08T13:26:43.871Z,1.50
2019-06-08T13:29:12.605Z,1.23
2019-06-08T13:31:42.031Z,1.30
2019-06-08T13:34:11.184Z,1.20
2019-06-08T13:36:42.333Z,1.43
2019-06-08T13:39:11.591Z,1.23
2019-06-08T13:41:40.502Z,1.20
2019-06-08T13:44:08.845Z,1.10
2019-06-08T13:46:37.914Z,1.40
2019-06-08T13:49:08.262Z,1.43
2019-06-08T13:51:38.400Z,1.10
2019-06-08T13:54:08.345Z,1.30
2019-06-08T13:56:38.481Z,1.20
2019-06-08T13:59:08.003Z,1.70
2019-06-08T14:01:37.875Z,1.33
2019-06-08T14:04:08.793Z,1.37
2019-06-08T14:06:36.340Z,1.40
2019-06-08T14:09:08.153Z,1.07
2019-06-08T14:11:35.852Z,1.13
2019-06-08T14:14:04.225Z,1.40
2019-06-08T14:16:32.695Z,1.23
2019-06-08T14:19:00.943Z,1.10
2019-06-08T14:21:37.815Z,1.40
2019-06-08T14:23:59.332Z,1.40
2019-06-08T14:26:27.706Z,1.40
2019-06-08T14:29:00.726Z,1.50
2019-06-08T14:31:29.966Z,1.23
2019-06-08T14:33:58.263Z,1.30
2019-06-08T14:36:28.677Z,1.27
2019-06-08T14:39:01.472Z,1.10
2019-06-08T14:41:29.247Z,1.30
2019-06-08T14:43:58.623Z,1.30
2019-06-08T14:46:31.162Z,1.10
2019-06-08T14:48:59.413Z,1.20
2019-06-08T14:51:47.733Z,1.63
2019-06-08T14:54:18.719Z,1.33
2019-06-08T14:56:46.594Z,1.50
2019-06-08T14:59:18.343Z,1.50
2019-06-08T15:01:48.594Z,1.03
2019-06-08T15:04:18.464Z,1.43
2019-06-08T15:06:48.372Z,1.40
2019-06-08T15:09:17.816Z,1.30
2019-06-08T15:11:48.069Z,1.30
2019-06-08T15:14:16.519Z,1.20
2019-06-08T15:16:45.037Z,1.67
2019-06-08T15:19:13.526Z,1.50
2019-06-08T15:21:41.808Z,1.30
2019-06-08T15:24:10.142Z,1.30
2019-06-08T15:26:44.839Z,1.53
2019-06-08T15:29:09.298Z,1.30
2019-06-08T15:31:39.034Z,1.37
2019-06-08T15:34:10.455Z,1.07
2019-06-08T15:36:38.161Z,1.27
2019-06-08T15:39:07.905Z,1.83
2019-06-08T15:41:38.218Z,1.60
2019-06-08T15:44:06.504Z,1.30
2019-06-08T15:46:34.761Z,1.43
2019-06-08T15:49:03.093Z,1.57
2019-06-08T15:51:35.527Z,1.13
2019-06-08T15:54:01.313Z,1.40
2019-06-08T15:56:41.834Z,1.40
2019-06-08T15:58:59.433Z,1.40
2019-06-08T16:01:31.440Z,1.50
2019-06-08T16:03:59.780Z,1.70
2019-06-08T16:06:28.104Z,1.47
2019-06-08T16:08:56.507Z,2.13
2019-06-08T16:11:26.034Z,1.43
2019-06-08T16:13:54.347Z,1.23
2019-06-08T16:16:22.771Z,1.40
2019-06-08T16:18:51.061Z,1.30
2019-06-08T16:21:19.804Z,1.67
2019-06-08T16:23:48.123Z,1.50
2019-06-08T16:26:16.452Z,1.43
2019-06-08T16:28:44.808Z,1.63
2019-06-08T16:31:13.032Z,1.43
2019-06-08T16:33:44.169Z,1.30
2019-06-08T16:36:11.187Z,1.30
2019-06-08T16:38:39.419Z,1.60
2019-06-08T16:41:07.733Z,1.87
2019-06-08T16:43:35.948Z,1.57
2019-06-08T16:46:04.263Z,1.50
2019-06-08T16:48:34.223Z,1.10
2019-06-08T16:51:03.042Z,1.30
2019-06-08T16:53:32.450Z,1.70
2019-06-08T16:56:01.382Z,1.30
2019-06-08T16:58:30.030Z,1.70
2019-06-08T17:00:58.405Z,1.40
2019-06-08T17:03:26.804Z,1.20
2019-06-08T17:05:55.112Z,1.63
2019-06-08T17:08:23.427Z,1.27
2019-06-08T17:10:51.643Z,1.10
2019-06-08T17:13:19.967Z,1.37
2019-06-08T17:15:48.190Z,1.20
2019-06-08T17:18:16.521Z,1.20
2019-06-08T17:20:44.849Z,1.37
2019-06-08T17:23:13.144Z,1.40
2019-06-08T17:25:41.467Z,1.37
2019-06-08T17:28:09.937Z,1.27
2019-06-08T17:30:39.397Z,1.63
2019-06-08T17:33:07.953Z,1.20
2019-06-08T17:35:37.543Z,1.27
2019-06-08T17:38:06.182Z,1.40
2019-06-08T17:40:34.469Z,1.40
2019-06-08T17:43:04.228Z,1.40
2019-06-08T17:45:32.565Z,1.60
2019-06-08T17:48:00.997Z,1.10
2019-06-08T17:50:29.437Z,1.40
2019-06-08T17:52:57.744Z,1.40
2019-06-08T17:55:26.043Z,1.40
2019-06-08T17:57:54.904Z,1.43
2019-06-08T18:00:24.429Z,1.50
2019-06-08T18:02:53.254Z,1.37
2019-06-08T18:05:22.035Z,1.20
2019-06-08T18:07:50.332Z,1.20
2019-06-08T18:10:18.765Z,1.30
2019-06-08T18:12:49.236Z,1.30
2019-06-08T18:15:17.981Z,1.50
2019-06-08T18:17:48.283Z,1.40
2019-06-08T18:20:17.882Z,1.60
2019-06-08T18:22:49.043Z,1.67
2019-06-08T18:25:17.440Z,1.40
2019-06-08T18:28:02.629Z,1.20
2019-06-08T18:30:19.009Z,1.70
2019-06-08T18:32:48.591Z,1.33
2019-06-08T18:35:18.253Z,1.43
2019-06-08T18:37:48.712Z,1.40
2019-06-08T18:40:17.961Z,1.40
2019-06-08T18:42:48.721Z,1.30
2019-06-08T18:45:18.170Z,1.33
2019-06-08T18:47:48.438Z,1.70
2019-06-08T18:50:17.418Z,1.80
2019-06-08T18:52:47.291Z,2.00
2019-06-08T18:55:18.268Z,1.83
2019-06-08T18:57:49.091Z,1.67
2019-06-08T19:00:16.886Z,1.77
2019-06-08T19:02:48.887Z,1.30
2019-06-08T19:05:15.068Z,1.63
2019-06-08T19:07:43.615Z,1.50
2019-06-08T19:10:13.344Z,1.30
2019-06-08T19:12:42.867Z,1.70
2019-06-08T19:15:11.724Z,1.60
2019-06-08T19:17:46.548Z,1.60
2019-06-08T19:20:09.924Z,1.40
2019-06-08T19:22:41.659Z,1.43
2019-06-08T19:25:08.108Z,1.73
2019-06-08T19:27:40.605Z,1.30
2019-06-08T19:30:06.505Z,1.40
2019-06-08T19:32:34.718Z,1.63
2019-06-08T19:35:02.982Z,1.60
2019-06-08T19:37:32.821Z,1.33
2019-06-08T19:40:01.211Z,1.70
2019-06-08T19:42:39.958Z,1.70
2019-06-08T19:45:05.233Z,1.57
2019-06-08T19:47:29.225Z,1.60
2019-06-08T19:49:57.903Z,1.47
2019-06-08T19:52:26.290Z,1.40
2019-06-08T19:54:54.735Z,1.80
2019-06-08T19:57:22.940Z,1.80
2019-06-08T19:59:51.169Z,3.90
2019-06-08T20:02:19.520Z,2.50
2019-06-08T20:04:48.933Z,2.47
2019-06-08T20:07:17.920Z,1.77
2019-06-08T20:09:48.146Z,1.90
2019-06-08T20:12:18.623Z,2.30
2019-06-08T20:14:48.430Z,3.13
2019-06-08T20:17:17.224Z,6.17
2019-06-08T20:19:48.930Z,5.87
2019-06-08T20:22:18.265Z,4.27
2019-06-08T20:24:51.411Z,3.60
2019-06-08T20:27:17.318Z,2.70
2019-06-08T20:29:49.696Z,2.07
2019-06-08T20:32:18.185Z,1.90
2019-06-08T20:34:49.051Z,2.00
2019-06-08T20:37:17.526Z,2.00
2019-06-08T20:40:01.688Z,1.97
2019-06-08T20:42:17.373Z,2.20
2019-06-08T20:44:46.697Z,1.70
2019-06-08T20:47:17.881Z,4.87
2019-06-08T20:49:48.669Z,4.80
2019-06-08T20:52:17.630Z,2.97
2019-06-08T20:54:50.470Z,4.40
2019-06-08T20:57:18.544Z,3.03
2019-06-08T20:59:50.143Z,3.77
2019-06-08T21:02:20.558Z,4.03
2019-06-08T21:04:53.145Z,4.00
2019-06-08T21:07:21.118Z,3.00
2019-06-08T21:09:51.926Z,2.60
2019-06-08T21:12:19.515Z,2.33
2019-06-08T21:14:51.144Z,2.00
2019-06-08T21:17:19.362Z,1.90
2019-06-08T21:19:48.777Z,2.10
2019-06-08T21:22:18.357Z,2.03
2019-06-08T21:24:50.046Z,2.43
2019-06-08T21:27:17.356Z,2.60
2019-06-08T21:29:51.484Z,2.63
2019-06-08T21:32:17.689Z,2.20
2019-06-08T21:34:49.107Z,2.20
2019-06-08T21:37:15.705Z,1.90
2019-06-08T21:39:44.123Z,2.30
2019-06-08T21:42:12.452Z,2.20
2019-06-08T21:44:40.764Z,2.20
2019-06-08T21:47:09.189Z,2.00
2019-06-08T21:49:38.430Z,2.33
2019-06-08T21:52:07.526Z,2.50
2019-06-08T21:54:37.580Z,2.47
2019-06-08T21:57:07.310Z,2.43
2019-06-08T21:59:37.753Z,3.20
2019-06-08T22:02:08.177Z,2.97
2019-06-08T22:04:37.247Z,2.73
2019-06-08T22:07:07.072Z,2.57
2019-06-08T22:09:37.434Z,2.30
2019-06-08T22:12:07.211Z,2.67
2019-06-08T22:14:37.821Z,2.43
2019-06-08T22:17:07.919Z,2.40
2019-06-08T22:19:38.029Z,2.40
2019-06-08T22:22:08.414Z,2.87
2019-06-08T22:24:38.499Z,2.57
2019-06-08T22:27:07.194Z,2.80
2019-06-08T22:29:38.161Z,2.63
2019-06-08T22:32:07.597Z,2.77
2019-06-08T22:34:37.244Z,2.90
2019-06-08T22:37:08.331Z,3.00
2019-06-08T22:39:37.391Z,3.03
2019-06-08T22:42:08.122Z,3.30
2019-06-08T22:44:37.467Z,2.90
2019-06-08T22:47:07.921Z,2.67
2019-06-08T22:49:35.465Z,2.50
2019-06-08T22:52:04.349Z,3.03
2019-06-08T22:54:32.635Z,2.70
2019-06-08T22:57:03.088Z,2.80
2019-06-08T22:59:32.392Z,2.77
2019-06-08T23:02:03.713Z,2.73
2019-06-08T23:04:30.625Z,2.90
2019-06-08T23:07:01.564Z,3.00
2019-06-08T23:09:28.733Z,2.90
2019-06-08T23:12:00.274Z,3.43
2019-06-08T23:14:28.553Z,3.00
2019-06-08T23:16:59.598Z,3.00
2019-06-08T23:19:26.867Z,3.00
2019-06-08T23:21:55.290Z,3.20
2019-06-08T23:24:23.543Z,3.07
2019-06-08T23:26:51.808Z,3.17
2019-06-08T23:29:20.033Z,3.17
2019-06-08T23:31:48.292Z,3.70
2019-06-08T23:34:18.328Z,3.60
2019-06-08T23:36:55.015Z,3.47
2019-06-08T23:39:17.985Z,3.27
2019-06-08T23:41:48.290Z,3.60
2019-06-08T23:44:17.650Z,3.70
2019-06-08T23:46:47.602Z,4.40
2019-06-08T23:49:18.679Z,3.40
2019-06-08T23:51:47.558Z,3.90
2019-06-08T23:54:18.232Z,3.47
2019-06-08T23:56:47.702Z,3.60
2019-06-08T23:59:17.671Z,3.40
